sensor_id;sensor_type;location;lat;lon;timestamp;P1;durP1;ratioP1;P2;durP2;ratioP2
31724;SDS011;18306;40.960;14.836;2023-08-20T00:00:32;6.68;;;3.97;;
31724;SDS011;18306;40.960;14.836;2023-08-20T00:03:04;6.78;;;5.30;;
31724;SDS011;18306;40.960;14.836;2023-08-20T00:05:40;7.00;;;4.30;;
31724;SDS011;18306;40.960;14.836;2023-08-20T00:08:07;7.20;;;3.85;;
31724;SDS011;18306;40.960;14.836;2023-08-20T00:10:34;6.22;;;4.53;;
31724;SDS011;18306;40.960;14.836;2023-08-20T00:13:01;8.48;;;4.93;;
31724;SDS011;18306;40.960;14.836;2023-08-20T00:15:28;6.25;;;4.53;;
31724;SDS011;18306;40.960;14.836;2023-08-20T00:17:55;8.93;;;4.60;;
31724;SDS011;18306;40.960;14.836;2023-08-20T00:20:23;8.00;;;4.80;;
31724;SDS011;18306;40.960;14.836;2023-08-20T00:22:50;4.32;;;3.70;;
31724;SDS011;18306;40.960;14.836;2023-08-20T00:25:18;5.50;;;4.38;;
31724;SDS011;18306;40.960;14.836;2023-08-20T00:27:45;5.20;;;4.30;;
31724;SDS011;18306;40.960;14.836;2023-08-20T00:30:13;15.05;;;5.63;;
31724;SDS011;18306;40.960;14.836;2023-08-20T00:32:40;8.00;;;4.90;;
31724;SDS011;18306;40.960;14.836;2023-08-20T00:35:08;6.32;;;4.45;;
31724;SDS011;18306;40.960;14.836;2023-08-20T00:37:36;5.57;;;4.07;;
31724;SDS011;18306;40.960;14.836;2023-08-20T00:40:03;5.57;;;3.60;;
31724;SDS011;18306;40.960;14.836;2023-08-20T00:42:31;6.75;;;4.13;;
31724;SDS011;18306;40.960;14.836;2023-08-20T00:44:59;6.43;;;4.22;;
31724;SDS011;18306;40.960;14.836;2023-08-20T00:47:27;8.13;;;5.15;;
31724;SDS011;18306;40.960;14.836;2023-08-20T00:49:54;7.00;;;4.10;;
31724;SDS011;18306;40.960;14.836;2023-08-20T00:52:22;9.18;;;5.00;;
31724;SDS011;18306;40.960;14.836;2023-08-20T00:54:49;10.13;;;5.28;;
31724;SDS011;18306;40.960;14.836;2023-08-20T00:57:17;6.15;;;4.53;;
31724;SDS011;18306;40.960;14.836;2023-08-20T00:59:47;6.03;;;4.45;;
31724;SDS011;18306;40.960;14.836;2023-08-20T01:02:17;6.97;;;4.95;;
31724;SDS011;18306;40.960;14.836;2023-08-20T01:04:45;7.90;;;4.72;;
31724;SDS011;18306;40.960;14.836;2023-08-20T01:07:16;9.15;;;4.97;;
31724;SDS011;18306;40.960;14.836;2023-08-20T01:10:04;8.55;;;5.25;;
31724;SDS011;18306;40.960;14.836;2023-08-20T01:12:51;5.65;;;3.97;;
31724;SDS011;18306;40.960;14.836;2023-08-20T01:15:18;15.52;;;4.75;;
31724;SDS011;18306;40.960;14.836;2023-08-20T01:17:46;5.32;;;4.43;;
31724;SDS011;18306;40.960;14.836;2023-08-20T01:20:14;10.40;;;4.53;;
31724;SDS011;18306;40.960;14.836;2023-08-20T01:28:38;7.45;;;4.15;;
31724;SDS011;18306;40.960;14.836;2023-08-20T01:31:06;4.35;;;3.20;;
31724;SDS011;18306;40.960;14.836;2023-08-20T01:33:34;6.03;;;4.05;;
31724;SDS011;18306;40.960;14.836;2023-08-20T01:36:01;10.85;;;4.18;;
31724;SDS011;18306;40.960;14.836;2023-08-20T01:38:28;11.02;;;4.85;;
31724;SDS011;18306;40.960;14.836;2023-08-20T01:40:55;8.20;;;4.70;;
31724;SDS011;18306;40.960;14.836;2023-08-20T01:43:22;8.30;;;4.78;;
31724;SDS011;18306;40.960;14.836;2023-08-20T01:45:49;8.88;;;4.50;;
31724;SDS011;18306;40.960;14.836;2023-08-20T01:48:16;5.22;;;4.03;;
31724;SDS011;18306;40.960;14.836;2023-08-20T01:50:43;4.38;;;3.55;;
31724;SDS011;18306;40.960;14.836;2023-08-20T01:53:12;7.68;;;4.40;;
31724;SDS011;18306;40.960;14.836;2023-08-20T01:55:39;5.57;;;3.67;;
31724;SDS011;18306;40.960;14.836;2023-08-20T01:58:06;5.97;;;3.92;;
31724;SDS011;18306;40.960;14.836;2023-08-20T02:00:33;9.85;;;4.28;;
31724;SDS011;18306;40.960;14.836;2023-08-20T02:03:00;6.03;;;3.80;;
31724;SDS011;18306;40.960;14.836;2023-08-20T02:05:27;5.78;;;4.13;;
31724;SDS011;18306;40.960;14.836;2023-08-20T02:07:54;4.68;;;3.47;;
31724;SDS011;18306;40.960;14.836;2023-08-20T02:10:21;6.93;;;4.20;;
31724;SDS011;18306;40.960;14.836;2023-08-20T02:12:48;6.32;;;4.93;;
31724;SDS011;18306;40.960;14.836;2023-08-20T02:15:16;8.20;;;4.90;;
31724;SDS011;18306;40.960;14.836;2023-08-20T02:17:43;5.78;;;4.32;;
31724;SDS011;18306;40.960;14.836;2023-08-20T02:20:10;6.55;;;4.68;;
31724;SDS011;18306;40.960;14.836;2023-08-20T02:22:37;6.38;;;3.78;;
31724;SDS011;18306;40.960;14.836;2023-08-20T02:25:04;9.82;;;3.63;;
31724;SDS011;18306;40.960;14.836;2023-08-20T02:27:31;5.93;;;3.83;;
31724;SDS011;18306;40.960;14.836;2023-08-20T02:29:58;9.27;;;4.40;;
31724;SDS011;18306;40.960;14.836;2023-08-20T02:32:25;6.45;;;4.05;;
31724;SDS011;18306;40.960;14.836;2023-08-20T02:34:53;7.22;;;4.40;;
31724;SDS011;18306;40.960;14.836;2023-08-20T02:37:20;8.20;;;4.88;;
31724;SDS011;18306;40.960;14.836;2023-08-20T02:39:47;6.30;;;4.47;;
31724;SDS011;18306;40.960;14.836;2023-08-20T02:42:14;7.30;;;4.47;;
31724;SDS011;18306;40.960;14.836;2023-08-20T02:44:41;6.72;;;5.00;;
31724;SDS011;18306;40.960;14.836;2023-08-20T02:47:08;6.05;;;3.78;;
31724;SDS011;18306;40.960;14.836;2023-08-20T02:49:35;6.45;;;5.03;;
31724;SDS011;18306;40.960;14.836;2023-08-20T02:52:03;7.38;;;4.05;;
31724;SDS011;18306;40.960;14.836;2023-08-20T02:54:30;7.55;;;4.07;;
31724;SDS011;18306;40.960;14.836;2023-08-20T02:56:58;8.63;;;5.57;;
31724;SDS011;18306;40.960;14.836;2023-08-20T02:59:25;5.35;;;3.88;;
31724;SDS011;18306;40.960;14.836;2023-08-20T03:01:52;5.20;;;4.07;;
31724;SDS011;18306;40.960;14.836;2023-08-20T03:04:20;7.05;;;4.55;;
31724;SDS011;18306;40.960;14.836;2023-08-20T03:06:46;7.05;;;4.82;;
31724;SDS011;18306;40.960;14.836;2023-08-20T03:09:13;5.53;;;3.38;;
31724;SDS011;18306;40.960;14.836;2023-08-20T03:11:40;6.65;;;4.85;;
31724;SDS011;18306;40.960;14.836;2023-08-20T03:14:07;7.05;;;5.00;;
31724;SDS011;18306;40.960;14.836;2023-08-20T03:16:34;6.97;;;4.30;;
31724;SDS011;18306;40.960;14.836;2023-08-20T03:19:01;10.63;;;4.60;;
31724;SDS011;18306;40.960;14.836;2023-08-20T03:21:28;8.25;;;4.35;;
31724;SDS011;18306;40.960;14.836;2023-08-20T03:23:56;5.13;;;3.85;;
31724;SDS011;18306;40.960;14.836;2023-08-20T03:26:23;5.68;;;3.88;;
31724;SDS011;18306;40.960;14.836;2023-08-20T03:28:50;8.15;;;3.80;;
31724;SDS011;18306;40.960;14.836;2023-08-20T03:31:17;6.28;;;4.13;;
31724;SDS011;18306;40.960;14.836;2023-08-20T03:33:45;6.75;;;4.20;;
31724;SDS011;18306;40.960;14.836;2023-08-20T03:36:12;7.63;;;5.40;;
31724;SDS011;18306;40.960;14.836;2023-08-20T03:38:40;5.80;;;4.40;;
31724;SDS011;18306;40.960;14.836;2023-08-20T03:41:07;6.60;;;4.13;;
31724;SDS011;18306;40.960;14.836;2023-08-20T03:43:35;7.85;;;5.03;;
31724;SDS011;18306;40.960;14.836;2023-08-20T03:46:03;6.93;;;3.88;;
31724;SDS011;18306;40.960;14.836;2023-08-20T03:48:29;8.40;;;5.22;;
31724;SDS011;18306;40.960;14.836;2023-08-20T03:50:57;7.40;;;4.93;;
31724;SDS011;18306;40.960;14.836;2023-08-20T03:53:24;8.60;;;5.40;;
31724;SDS011;18306;40.960;14.836;2023-08-20T03:55:51;7.18;;;4.68;;
31724;SDS011;18306;40.960;14.836;2023-08-20T03:58:18;7.22;;;5.10;;
31724;SDS011;18306;40.960;14.836;2023-08-20T04:00:45;5.93;;;4.35;;
31724;SDS011;18306;40.960;14.836;2023-08-20T04:03:12;5.50;;;4.38;;
31724;SDS011;18306;40.960;14.836;2023-08-20T04:05:40;8.70;;;5.03;;
31724;SDS011;18306;40.960;14.836;2023-08-20T04:08:07;8.23;;;4.88;;
31724;SDS011;18306;40.960;14.836;2023-08-20T04:10:34;5.80;;;3.95;;
31724;SDS011;18306;40.960;14.836;2023-08-20T04:13:01;6.53;;;4.28;;
31724;SDS011;18306;40.960;14.836;2023-08-20T04:15:28;4.57;;;3.83;;
31724;SDS011;18306;40.960;14.836;2023-08-20T04:17:55;6.72;;;4.72;;
31724;SDS011;18306;40.960;14.836;2023-08-20T04:20:22;7.65;;;4.22;;
31724;SDS011;18306;40.960;14.836;2023-08-20T04:22:49;6.55;;;4.63;;
31724;SDS011;18306;40.960;14.836;2023-08-20T04:25:16;7.47;;;4.50;;
31724;SDS011;18306;40.960;14.836;2023-08-20T04:27:43;7.97;;;5.07;;
31724;SDS011;18306;40.960;14.836;2023-08-20T04:30:10;7.13;;;4.78;;
31724;SDS011;18306;40.960;14.836;2023-08-20T04:32:39;10.55;;;4.68;;
31724;SDS011;18306;40.960;14.836;2023-08-20T04:35:13;9.25;;;4.95;;
31724;SDS011;18306;40.960;14.836;2023-08-20T04:37:46;6.10;;;4.00;;
31724;SDS011;18306;40.960;14.836;2023-08-20T04:40:46;7.25;;;4.78;;
31724;SDS011;18306;40.960;14.836;2023-08-20T04:43:24;10.50;;;5.22;;
31724;SDS011;18306;40.960;14.836;2023-08-20T04:46:07;6.28;;;4.45;;
31724;SDS011;18306;40.960;14.836;2023-08-20T04:48:34;8.70;;;4.85;;
31724;SDS011;18306;40.960;14.836;2023-08-20T04:51:02;7.15;;;5.07;;
31724;SDS011;18306;40.960;14.836;2023-08-20T04:53:39;6.47;;;4.47;;
31724;SDS011;18306;40.960;14.836;2023-08-20T04:56:08;12.60;;;5.32;;
31724;SDS011;18306;40.960;14.836;2023-08-20T04:58:35;8.10;;;5.22;;
31724;SDS011;18306;40.960;14.836;2023-08-20T05:01:02;10.07;;;4.68;;
31724;SDS011;18306;40.960;14.836;2023-08-20T05:03:30;8.70;;;5.30;;
31724;SDS011;18306;40.960;14.836;2023-08-20T05:05:57;10.40;;;5.32;;
31724;SDS011;18306;40.960;14.836;2023-08-20T05:08:24;9.73;;;5.65;;
31724;SDS011;18306;40.960;14.836;2023-08-20T05:10:51;10.30;;;5.68;;
31724;SDS011;18306;40.960;14.836;2023-08-20T05:13:18;9.07;;;4.78;;
31724;SDS011;18306;40.960;14.836;2023-08-20T05:15:49;7.15;;;4.55;;
31724;SDS011;18306;40.960;14.836;2023-08-20T05:18:15;9.60;;;6.10;;
31724;SDS011;18306;40.960;14.836;2023-08-20T05:20:43;7.80;;;4.78;;
31724;SDS011;18306;40.960;14.836;2023-08-20T05:23:10;9.90;;;5.25;;
31724;SDS011;18306;40.960;14.836;2023-08-20T05:25:37;8.85;;;5.68;;
31724;SDS011;18306;40.960;14.836;2023-08-20T05:28:05;7.90;;;5.43;;
31724;SDS011;18306;40.960;14.836;2023-08-20T05:30:33;7.43;;;5.43;;
31724;SDS011;18306;40.960;14.836;2023-08-20T05:33:01;16.83;;;4.93;;
31724;SDS011;18306;40.960;14.836;2023-08-20T05:35:34;10.18;;;5.95;;
31724;SDS011;18306;40.960;14.836;2023-08-20T05:38:02;8.38;;;4.82;;
31724;SDS011;18306;40.960;14.836;2023-08-20T05:40:30;10.10;;;4.75;;
31724;SDS011;18306;40.960;14.836;2023-08-20T05:42:57;5.80;;;4.80;;
31724;SDS011;18306;40.960;14.836;2023-08-20T05:45:25;9.75;;;4.90;;
31724;SDS011;18306;40.960;14.836;2023-08-20T05:47:53;9.85;;;5.25;;
31724;SDS011;18306;40.960;14.836;2023-08-20T05:50:20;8.73;;;5.43;;
31724;SDS011;18306;40.960;14.836;2023-08-20T05:52:48;6.25;;;4.47;;
31724;SDS011;18306;40.960;14.836;2023-08-20T05:55:15;8.27;;;5.35;;
31724;SDS011;18306;40.960;14.836;2023-08-20T05:57:42;6.30;;;4.85;;
31724;SDS011;18306;40.960;14.836;2023-08-20T06:00:10;9.55;;;4.90;;
31724;SDS011;18306;40.960;14.836;2023-08-20T06:02:40;8.27;;;5.22;;
31724;SDS011;18306;40.960;14.836;2023-08-20T06:05:09;6.13;;;4.65;;
31724;SDS011;18306;40.960;14.836;2023-08-20T06:07:36;9.50;;;5.80;;
31724;SDS011;18306;40.960;14.836;2023-08-20T06:10:03;7.50;;;5.43;;
31724;SDS011;18306;40.960;14.836;2023-08-20T06:12:31;8.60;;;4.82;;
31724;SDS011;18306;40.960;14.836;2023-08-20T06:14:58;10.88;;;4.82;;
31724;SDS011;18306;40.960;14.836;2023-08-20T06:17:25;7.10;;;4.90;;
31724;SDS011;18306;40.960;14.836;2023-08-20T06:19:52;6.32;;;4.38;;
31724;SDS011;18306;40.960;14.836;2023-08-20T06:22:19;6.38;;;4.88;;
31724;SDS011;18306;40.960;14.836;2023-08-20T06:24:46;6.97;;;5.25;;
31724;SDS011;18306;40.960;14.836;2023-08-20T06:27:13;8.15;;;4.78;;
31724;SDS011;18306;40.960;14.836;2023-08-20T06:29:40;6.95;;;4.88;;
31724;SDS011;18306;40.960;14.836;2023-08-20T06:32:07;14.65;;;7.47;;
31724;SDS011;18306;40.960;14.836;2023-08-20T06:34:34;10.05;;;6.13;;
31724;SDS011;18306;40.960;14.836;2023-08-20T06:37:03;12.00;;;7.40;;
31724;SDS011;18306;40.960;14.836;2023-08-20T06:39:30;10.52;;;7.30;;
31724;SDS011;18306;40.960;14.836;2023-08-20T06:41:57;14.30;;;7.50;;
31724;SDS011;18306;40.960;14.836;2023-08-20T06:44:25;12.63;;;7.35;;
31724;SDS011;18306;40.960;14.836;2023-08-20T06:46:52;10.02;;;7.13;;
31724;SDS011;18306;40.960;14.836;2023-08-20T06:49:19;12.90;;;8.02;;
31724;SDS011;18306;40.960;14.836;2023-08-20T06:51:46;14.52;;;8.45;;
31724;SDS011;18306;40.960;14.836;2023-08-20T06:54:14;13.70;;;7.10;;
31724;SDS011;18306;40.960;14.836;2023-08-20T06:56:42;10.57;;;6.03;;
31724;SDS011;18306;40.960;14.836;2023-08-20T06:59:09;9.45;;;6.15;;
31724;SDS011;18306;40.960;14.836;2023-08-20T07:01:36;10.40;;;6.28;;
31724;SDS011;18306;40.960;14.836;2023-08-20T07:04:03;11.25;;;5.63;;
31724;SDS011;18306;40.960;14.836;2023-08-20T07:06:31;10.23;;;6.57;;
31724;SDS011;18306;40.960;14.836;2023-08-20T07:08:58;9.77;;;5.00;;
31724;SDS011;18306;40.960;14.836;2023-08-20T07:11:25;8.85;;;5.30;;
31724;SDS011;18306;40.960;14.836;2023-08-20T07:13:52;8.75;;;6.32;;
31724;SDS011;18306;40.960;14.836;2023-08-20T07:16:18;9.43;;;5.82;;
31724;SDS011;18306;40.960;14.836;2023-08-20T07:18:46;10.10;;;6.88;;
31724;SDS011;18306;40.960;14.836;2023-08-20T07:21:12;9.23;;;5.88;;
31724;SDS011;18306;40.960;14.836;2023-08-20T07:23:40;12.07;;;7.07;;
31724;SDS011;18306;40.960;14.836;2023-08-20T07:26:10;11.60;;;6.32;;
31724;SDS011;18306;40.960;14.836;2023-08-20T07:28:41;10.73;;;5.57;;
31724;SDS011;18306;40.960;14.836;2023-08-20T07:31:24;10.40;;;6.50;;
31724;SDS011;18306;40.960;14.836;2023-08-20T07:33:52;7.53;;;5.90;;
31724;SDS011;18306;40.960;14.836;2023-08-20T07:36:21;8.95;;;6.60;;
31724;SDS011;18306;40.960;14.836;2023-08-20T07:38:49;11.35;;;7.13;;
31724;SDS011;18306;40.960;14.836;2023-08-20T07:41:17;9.45;;;5.78;;
31724;SDS011;18306;40.960;14.836;2023-08-20T07:43:46;8.73;;;6.25;;
31724;SDS011;18306;40.960;14.836;2023-08-20T07:46:13;7.55;;;5.78;;
31724;SDS011;18306;40.960;14.836;2023-08-20T07:48:41;10.18;;;5.93;;
31724;SDS011;18306;40.960;14.836;2023-08-20T07:51:08;11.25;;;6.05;;
31724;SDS011;18306;40.960;14.836;2023-08-20T07:53:35;8.73;;;6.63;;
31724;SDS011;18306;40.960;14.836;2023-08-20T07:56:02;6.50;;;5.10;;
31724;SDS011;18306;40.960;14.836;2023-08-20T07:58:30;10.15;;;6.18;;
31724;SDS011;18306;40.960;14.836;2023-08-20T08:01:03;8.75;;;5.85;;
31724;SDS011;18306;40.960;14.836;2023-08-20T08:03:31;7.05;;;5.55;;
31724;SDS011;18306;40.960;14.836;2023-08-20T08:05:58;7.75;;;5.70;;
31724;SDS011;18306;40.960;14.836;2023-08-20T08:08:25;11.05;;;7.05;;
31724;SDS011;18306;40.960;14.836;2023-08-20T08:10:52;10.50;;;6.32;;
31724;SDS011;18306;40.960;14.836;2023-08-20T08:13:20;11.25;;;6.60;;
31724;SDS011;18306;40.960;14.836;2023-08-20T08:15:49;8.35;;;5.95;;
31724;SDS011;18306;40.960;14.836;2023-08-20T08:18:18;18.55;;;6.97;;
31724;SDS011;18306;40.960;14.836;2023-08-20T08:20:45;9.48;;;6.60;;
31724;SDS011;18306;40.960;14.836;2023-08-20T08:23:13;11.07;;;6.97;;
31724;SDS011;18306;40.960;14.836;2023-08-20T08:25:40;8.05;;;6.05;;
31724;SDS011;18306;40.960;14.836;2023-08-20T08:28:07;13.60;;;6.72;;
31724;SDS011;18306;40.960;14.836;2023-08-20T08:30:34;10.13;;;6.60;;
31724;SDS011;18306;40.960;14.836;2023-08-20T08:33:01;7.38;;;5.97;;
31724;SDS011;18306;40.960;14.836;2023-08-20T08:35:28;10.05;;;6.60;;
31724;SDS011;18306;40.960;14.836;2023-08-20T08:37:55;8.65;;;6.13;;
31724;SDS011;18306;40.960;14.836;2023-08-20T08:40:25;16.85;;;7.20;;
31724;SDS011;18306;40.960;14.836;2023-08-20T08:42:55;9.25;;;6.70;;
31724;SDS011;18306;40.960;14.836;2023-08-20T08:45:27;18.77;;;6.53;;
31724;SDS011;18306;40.960;14.836;2023-08-20T08:47:54;12.00;;;6.38;;
31724;SDS011;18306;40.960;14.836;2023-08-20T08:50:21;8.25;;;6.40;;
31724;SDS011;18306;40.960;14.836;2023-08-20T08:52:50;11.22;;;6.68;;
31724;SDS011;18306;40.960;14.836;2023-08-20T08:55:20;9.90;;;6.60;;
31724;SDS011;18306;40.960;14.836;2023-08-20T08:57:47;12.20;;;6.78;;
31724;SDS011;18306;40.960;14.836;2023-08-20T09:00:15;9.43;;;6.95;;
31724;SDS011;18306;40.960;14.836;2023-08-20T09:02:42;10.30;;;7.15;;
31724;SDS011;18306;40.960;14.836;2023-08-20T09:05:09;13.98;;;6.55;;
31724;SDS011;18306;40.960;14.836;2023-08-20T09:07:37;10.82;;;6.90;;
31724;SDS011;18306;40.960;14.836;2023-08-20T09:10:13;12.90;;;6.85;;
31724;SDS011;18306;40.960;14.836;2023-08-20T09:12:44;10.50;;;6.55;;
31724;SDS011;18306;40.960;14.836;2023-08-20T09:15:14;12.63;;;7.82;;
31724;SDS011;18306;40.960;14.836;2023-08-20T09:17:41;15.77;;;8.00;;
31724;SDS011;18306;40.960;14.836;2023-08-20T09:20:08;13.65;;;6.82;;
31724;SDS011;18306;40.960;14.836;2023-08-20T09:22:36;16.17;;;7.03;;
31724;SDS011;18306;40.960;14.836;2023-08-20T09:25:07;10.98;;;7.65;;
31724;SDS011;18306;40.960;14.836;2023-08-20T09:27:41;13.50;;;7.93;;
31724;SDS011;18306;40.960;14.836;2023-08-20T09:30:08;13.68;;;7.80;;
31724;SDS011;18306;40.960;14.836;2023-08-20T09:32:36;10.50;;;7.65;;
31724;SDS011;18306;40.960;14.836;2023-08-20T09:35:04;9.82;;;6.68;;
31724;SDS011;18306;40.960;14.836;2023-08-20T09:37:33;10.70;;;7.20;;
31724;SDS011;18306;40.960;14.836;2023-08-20T09:40:00;13.70;;;8.35;;
31724;SDS011;18306;40.960;14.836;2023-08-20T09:42:28;11.70;;;7.03;;
31724;SDS011;18306;40.960;14.836;2023-08-20T09:45:00;12.95;;;7.90;;
31724;SDS011;18306;40.960;14.836;2023-08-20T09:47:30;11.77;;;6.97;;
31724;SDS011;18306;40.960;14.836;2023-08-20T09:50:06;13.00;;;7.72;;
31724;SDS011;18306;40.960;14.836;2023-08-20T09:52:40;14.52;;;7.10;;
31724;SDS011;18306;40.960;14.836;2023-08-20T09:55:20;11.65;;;7.15;;
31724;SDS011;18306;40.960;14.836;2023-08-20T09:57:48;11.80;;;7.43;;
31724;SDS011;18306;40.960;14.836;2023-08-20T10:00:20;9.45;;;6.60;;
31724;SDS011;18306;40.960;14.836;2023-08-20T10:02:49;11.45;;;7.75;;
31724;SDS011;18306;40.960;14.836;2023-08-20T10:05:19;12.98;;;7.03;;
31724;SDS011;18306;40.960;14.836;2023-08-20T10:07:47;14.02;;;8.05;;
31724;SDS011;18306;40.960;14.836;2023-08-20T10:10:17;8.75;;;5.88;;
31724;SDS011;18306;40.960;14.836;2023-08-20T10:12:47;11.23;;;7.25;;
31724;SDS011;18306;40.960;14.836;2023-08-20T10:15:14;9.48;;;7.05;;
31724;SDS011;18306;40.960;14.836;2023-08-20T10:17:44;9.02;;;7.40;;
31724;SDS011;18306;40.960;14.836;2023-08-20T10:20:13;13.30;;;7.50;;
31724;SDS011;18306;40.960;14.836;2023-08-20T10:22:44;14.40;;;7.18;;
31724;SDS011;18306;40.960;14.836;2023-08-20T10:25:12;11.75;;;6.75;;
31724;SDS011;18306;40.960;14.836;2023-08-20T10:27:49;11.63;;;6.95;;
31724;SDS011;18306;40.960;14.836;2023-08-20T10:30:16;7.70;;;6.22;;
31724;SDS011;18306;40.960;14.836;2023-08-20T10:32:50;6.72;;;5.88;;
31724;SDS011;18306;40.960;14.836;2023-08-20T10:35:26;9.18;;;6.80;;
31724;SDS011;18306;40.960;14.836;2023-08-20T10:38:06;17.25;;;8.00;;
31724;SDS011;18306;40.960;14.836;2023-08-20T10:40:53;18.77;;;8.32;;
31724;SDS011;18306;40.960;14.836;2023-08-20T10:43:36;8.48;;;6.55;;
31724;SDS011;18306;40.960;14.836;2023-08-20T10:46:26;10.45;;;6.53;;
31724;SDS011;18306;40.960;14.836;2023-08-20T10:48:58;9.63;;;7.10;;
31724;SDS011;18306;40.960;14.836;2023-08-20T10:51:29;8.00;;;6.40;;
31724;SDS011;18306;40.960;14.836;2023-08-20T10:56:42;13.00;;;7.40;;
31724;SDS011;18306;40.960;14.836;2023-08-20T10:59:16;10.73;;;7.47;;
31724;SDS011;18306;40.960;14.836;2023-08-20T11:01:47;10.98;;;6.78;;
31724;SDS011;18306;40.960;14.836;2023-08-20T11:04:15;10.82;;;7.25;;
31724;SDS011;18306;40.960;14.836;2023-08-20T11:06:46;12.60;;;8.55;;
31724;SDS011;18306;40.960;14.836;2023-08-20T11:09:19;9.75;;;6.82;;
31724;SDS011;18306;40.960;14.836;2023-08-20T11:11:47;15.35;;;8.60;;
31724;SDS011;18306;40.960;14.836;2023-08-20T11:14:15;11.93;;;7.28;;
31724;SDS011;18306;40.960;14.836;2023-08-20T11:16:48;10.18;;;7.28;;
31724;SDS011;18306;40.960;14.836;2023-08-20T11:19:22;11.25;;;7.43;;
31724;SDS011;18306;40.960;14.836;2023-08-20T11:21:50;7.25;;;6.53;;
31724;SDS011;18306;40.960;14.836;2023-08-20T11:24:18;12.52;;;8.07;;
31724;SDS011;18306;40.960;14.836;2023-08-20T11:26:46;11.88;;;8.13;;
31724;SDS011;18306;40.960;14.836;2023-08-20T11:29:14;10.80;;;7.63;;
31724;SDS011;18306;40.960;14.836;2023-08-20T11:31:46;10.98;;;7.20;;
31724;SDS011;18306;40.960;14.836;2023-08-20T11:34:13;12.70;;;7.82;;
31724;SDS011;18306;40.960;14.836;2023-08-20T11:36:45;11.15;;;7.40;;
31724;SDS011;18306;40.960;14.836;2023-08-20T11:39:14;12.05;;;7.50;;
31724;SDS011;18306;40.960;14.836;2023-08-20T11:41:41;7.78;;;6.57;;
31724;SDS011;18306;40.960;14.836;2023-08-20T11:44:10;12.90;;;6.40;;
31724;SDS011;18306;40.960;14.836;2023-08-20T11:46:43;11.10;;;7.88;;
31724;SDS011;18306;40.960;14.836;2023-08-20T11:49:11;10.60;;;8.13;;
31724;SDS011;18306;40.960;14.836;2023-08-20T11:51:47;11.82;;;7.70;;
31724;SDS011;18306;40.960;14.836;2023-08-20T11:54:17;13.82;;;7.80;;
31724;SDS011;18306;40.960;14.836;2023-08-20T11:56:50;11.15;;;7.57;;
31724;SDS011;18306;40.960;14.836;2023-08-20T11:59:24;8.90;;;6.43;;
31724;SDS011;18306;40.960;14.836;2023-08-20T12:01:58;11.40;;;7.13;;
31724;SDS011;18306;40.960;14.836;2023-08-20T12:04:28;13.55;;;8.25;;
31724;SDS011;18306;40.960;14.836;2023-08-20T12:07:12;9.77;;;7.35;;
31724;SDS011;18306;40.960;14.836;2023-08-20T12:12:11;21.17;;;8.23;;
31724;SDS011;18306;40.960;14.836;2023-08-20T12:14:38;11.57;;;8.32;;
31724;SDS011;18306;40.960;14.836;2023-08-20T12:17:09;15.45;;;8.88;;
31724;SDS011;18306;40.960;14.836;2023-08-20T12:19:39;14.80;;;8.68;;
31724;SDS011;18306;40.960;14.836;2023-08-20T12:22:08;12.02;;;8.38;;
31724;SDS011;18306;40.960;14.836;2023-08-20T12:24:35;11.95;;;9.05;;
31724;SDS011;18306;40.960;14.836;2023-08-20T12:27:06;14.73;;;8.57;;
31724;SDS011;18306;40.960;14.836;2023-08-20T12:29:33;14.35;;;8.00;;
31724;SDS011;18306;40.960;14.836;2023-08-20T12:32:00;15.93;;;10.10;;
31724;SDS011;18306;40.960;14.836;2023-08-20T12:34:33;18.45;;;8.38;;
31724;SDS011;18306;40.960;14.836;2023-08-20T12:37:03;11.52;;;7.97;;
31724;SDS011;18306;40.960;14.836;2023-08-20T12:39:30;13.85;;;8.25;;
31724;SDS011;18306;40.960;14.836;2023-08-20T12:41:57;12.05;;;8.02;;
31724;SDS011;18306;40.960;14.836;2023-08-20T12:44:24;13.18;;;8.43;;
31724;SDS011;18306;40.960;14.836;2023-08-20T12:46:51;10.40;;;7.63;;
31724;SDS011;18306;40.960;14.836;2023-08-20T12:49:24;14.15;;;8.35;;
31724;SDS011;18306;40.960;14.836;2023-08-20T12:51:52;12.30;;;7.97;;
31724;SDS011;18306;40.960;14.836;2023-08-20T12:54:22;13.05;;;7.85;;
31724;SDS011;18306;40.960;14.836;2023-08-20T12:56:49;14.23;;;8.32;;
31724;SDS011;18306;40.960;14.836;2023-08-20T12:59:16;21.63;;;7.88;;
31724;SDS011;18306;40.960;14.836;2023-08-20T13:01:43;15.48;;;8.15;;
31724;SDS011;18306;40.960;14.836;2023-08-20T13:04:12;8.50;;;6.88;;
31724;SDS011;18306;40.960;14.836;2023-08-20T13:06:46;10.13;;;6.95;;
31724;SDS011;18306;40.960;14.836;2023-08-20T13:09:25;10.02;;;7.07;;
31724;SDS011;18306;40.960;14.836;2023-08-20T13:11:56;12.90;;;7.22;;
31724;SDS011;18306;40.960;14.836;2023-08-20T13:14:33;10.05;;;5.90;;
31724;SDS011;18306;40.960;14.836;2023-08-20T13:17:01;11.57;;;7.88;;
31724;SDS011;18306;40.960;14.836;2023-08-20T13:19:34;15.80;;;8.20;;
31724;SDS011;18306;40.960;14.836;2023-08-20T13:22:21;10.68;;;7.07;;
31724;SDS011;18306;40.960;14.836;2023-08-20T13:24:48;10.52;;;7.80;;
31724;SDS011;18306;40.960;14.836;2023-08-20T13:27:16;12.57;;;7.28;;
31724;SDS011;18306;40.960;14.836;2023-08-20T13:29:43;10.60;;;7.40;;
31724;SDS011;18306;40.960;14.836;2023-08-20T13:32:16;7.97;;;6.53;;
31724;SDS011;18306;40.960;14.836;2023-08-20T13:34:58;11.55;;;7.00;;
31724;SDS011;18306;40.960;14.836;2023-08-20T13:37:27;11.88;;;7.68;;
31724;SDS011;18306;40.960;14.836;2023-08-20T13:39:58;12.75;;;7.22;;
31724;SDS011;18306;40.960;14.836;2023-08-20T13:42:33;8.70;;;6.15;;
31724;SDS011;18306;40.960;14.836;2023-08-20T13:44:59;9.40;;;6.72;;
31724;SDS011;18306;40.960;14.836;2023-08-20T13:47:27;12.43;;;7.07;;
31724;SDS011;18306;40.960;14.836;2023-08-20T13:49:54;10.98;;;7.00;;
31724;SDS011;18306;40.960;14.836;2023-08-20T13:52:21;15.68;;;6.88;;
31724;SDS011;18306;40.960;14.836;2023-08-20T13:54:48;11.73;;;8.10;;
31724;SDS011;18306;40.960;14.836;2023-08-20T13:57:15;10.43;;;7.38;;
31724;SDS011;18306;40.960;14.836;2023-08-20T13:59:43;9.15;;;6.95;;
31724;SDS011;18306;40.960;14.836;2023-08-20T14:02:11;9.38;;;6.65;;
31724;SDS011;18306;40.960;14.836;2023-08-20T14:04:38;11.52;;;7.93;;
31724;SDS011;18306;40.960;14.836;2023-08-20T14:07:17;9.10;;;6.40;;
31724;SDS011;18306;40.960;14.836;2023-08-20T14:09:47;13.15;;;6.90;;
31724;SDS011;18306;40.960;14.836;2023-08-20T14:12:15;8.10;;;6.43;;
31724;SDS011;18306;40.960;14.836;2023-08-20T14:14:43;9.65;;;7.32;;
31724;SDS011;18306;40.960;14.836;2023-08-20T14:17:10;8.85;;;6.18;;
31724;SDS011;18306;40.960;14.836;2023-08-20T14:19:37;10.02;;;7.05;;
31724;SDS011;18306;40.960;14.836;2023-08-20T14:22:04;11.35;;;5.93;;
31724;SDS011;18306;40.960;14.836;2023-08-20T14:24:31;11.88;;;7.05;;
31724;SDS011;18306;40.960;14.836;2023-08-20T14:26:59;10.70;;;6.45;;
31724;SDS011;18306;40.960;14.836;2023-08-20T14:29:27;8.65;;;6.22;;
31724;SDS011;18306;40.960;14.836;2023-08-20T14:31:58;8.90;;;6.50;;
31724;SDS011;18306;40.960;14.836;2023-08-20T14:34:25;8.40;;;5.97;;
31724;SDS011;18306;40.960;14.836;2023-08-20T14:36:51;9.23;;;6.40;;
31724;SDS011;18306;40.960;14.836;2023-08-20T14:39:18;10.80;;;5.85;;
31724;SDS011;18306;40.960;14.836;2023-08-20T14:41:45;10.68;;;6.60;;
31724;SDS011;18306;40.960;14.836;2023-08-20T14:44:12;11.07;;;6.15;;
31724;SDS011;18306;40.960;14.836;2023-08-20T14:46:39;8.90;;;6.30;;
31724;SDS011;18306;40.960;14.836;2023-08-20T14:49:07;7.72;;;5.82;;